sensor_id;sensor_type;location;lat;lon;timestamp;temperature;humidity
11091;DHT22;5599;52.210;21.046;2023-04-01T00:01:40;11.30;99.90
11091;DHT22;5599;52.210;21.046;2023-04-01T00:04:09;11.20;99.90
11091;DHT22;5599;52.210;21.046;2023-04-01T00:06:38;11.10;99.90
11091;DHT22;5599;52.210;21.046;2023-04-01T00:09:08;11.20;99.90
11091;DHT22;5599;52.210;21.046;2023-04-01T00:11:37;11.10;99.90
11091;DHT22;5599;52.210;21.046;2023-04-01T00:14:08;11.10;99.90
11091;DHT22;5599;52.210;21.046;2023-04-01T00:16:37;11.20;99.90
11091;DHT22;5599;52.210;21.046;2023-04-01T00:19:06;11.20;99.90
11091;DHT22;5599;52.210;21.046;2023-04-01T00:21:36;11.20;99.90
11091;DHT22;5599;52.210;21.046;2023-04-01T00:24:05;11.20;99.90
11091;DHT22;5599;52.210;21.046;2023-04-01T00:26:35;11.10;99.90
11091;DHT22;5599;52.210;21.046;2023-04-01T00:29:04;11.10;99.90
11091;DHT22;5599;52.210;21.046;2023-04-01T00:31:35;11.10;99.90
11091;DHT22;5599;52.210;21.046;2023-04-01T00:34:04;11.10;99.90
11091;DHT22;5599;52.210;21.046;2023-04-01T00:36:33;11.00;99.90
11091;DHT22;5599;52.210;21.046;2023-04-01T00:39:02;11.10;99.90
11091;DHT22;5599;52.210;21.046;2023-04-01T00:41:32;11.00;99.90
11091;DHT22;5599;52.210;21.046;2023-04-01T00:44:16;11.00;99.90
11091;DHT22;5599;52.210;21.046;2023-04-01T00:46:48;11.00;99.90
11091;DHT22;5599;52.210;21.046;2023-04-01T00:49:21;11.00;99.90
11091;DHT22;5599;52.210;21.046;2023-04-01T00:51:54;11.00;99.90
11091;DHT22;5599;52.210;21.046;2023-04-01T00:54:25;10.90;99.90
11091;DHT22;5599;52.210;21.046;2023-04-01T00:56:58;10.90;99.90
11091;DHT22;5599;52.210;21.046;2023-04-01T00:59:31;10.90;99.90
11091;DHT22;5599;52.210;21.046;2023-04-01T01:02:04;10.90;99.90
11091;DHT22;5599;52.210;21.046;2023-04-01T01:04:35;10.90;99.90
11091;DHT22;5599;52.210;21.046;2023-04-01T01:07:14;10.90;99.90
11091;DHT22;5599;52.210;21.046;2023-04-01T01:12:27;10.90;99.90
11091;DHT22;5599;52.210;21.046;2023-04-01T01:15:05;11.00;99.90
11091;DHT22;5599;52.210;21.046;2023-04-01T01:17:48;11.00;99.90
11091;DHT22;5599;52.210;21.046;2023-04-01T01:20:44;10.90;99.90
11091;DHT22;5599;52.210;21.046;2023-04-01T01:23:47;11.00;99.90
11091;DHT22;5599;52.210;21.046;2023-04-01T01:26:48;11.00;99.90
11091;DHT22;5599;52.210;21.046;2023-04-01T01:29:49;11.10;99.90
11091;DHT22;5599;52.210;21.046;2023-04-01T01:35:30;11.00;99.90
11091;DHT22;5599;52.210;21.046;2023-04-01T01:38:04;11.10;99.90
11091;DHT22;5599;52.210;21.046;2023-04-01T01:40:37;11.00;99.90
11091;DHT22;5599;52.210;21.046;2023-04-01T01:43:10;10.90;99.90
11091;DHT22;5599;52.210;21.046;2023-04-01T01:45:44;11.00;99.90
11091;DHT22;5599;52.210;21.046;2023-04-01T01:48:15;11.00;99.90
11091;DHT22;5599;52.210;21.046;2023-04-01T01:50:48;10.90;99.90
11091;DHT22;5599;52.210;21.046;2023-04-01T01:53:17;10.90;99.90
11091;DHT22;5599;52.210;21.046;2023-04-01T01:55:47;10.90;99.90
11091;DHT22;5599;52.210;21.046;2023-04-01T01:58:20;11.00;99.90
11091;DHT22;5599;52.210;21.046;2023-04-01T02:00:54;10.90;99.90
11091;DHT22;5599;52.210;21.046;2023-04-01T02:03:27;10.90;99.90
11091;DHT22;5599;52.210;21.046;2023-04-01T02:06:00;11.00;99.90
11091;DHT22;5599;52.210;21.046;2023-04-01T02:08:34;10.90;99.90
11091;DHT22;5599;52.210;21.046;2023-04-01T02:11:07;10.90;99.90
11091;DHT22;5599;52.210;21.046;2023-04-01T02:13:43;10.90;99.90
11091;DHT22;5599;52.210;21.046;2023-04-01T02:16:16;10.90;99.90
11091;DHT22;5599;52.210;21.046;2023-04-01T02:18:50;10.90;99.90
11091;DHT22;5599;52.210;21.046;2023-04-01T02:21:26;10.80;99.90
11091;DHT22;5599;52.210;21.046;2023-04-01T02:23:57;10.80;99.90
11091;DHT22;5599;52.210;21.046;2023-04-01T02:26:27;10.80;99.90
11091;DHT22;5599;52.210;21.046;2023-04-01T02:28:57;10.70;99.90
11091;DHT22;5599;52.210;21.046;2023-04-01T02:31:29;10.80;99.90
11091;DHT22;5599;52.210;21.046;2023-04-01T02:33:59;10.80;99.90
11091;DHT22;5599;52.210;21.046;2023-04-01T02:36:31;10.80;99.90
11091;DHT22;5599;52.210;21.046;2023-04-01T02:39:00;10.80;99.90
11091;DHT22;5599;52.210;21.046;2023-04-01T02:41:31;10.70;99.90
11091;DHT22;5599;52.210;21.046;2023-04-01T02:44:08;10.70;99.90
11091;DHT22;5599;52.210;21.046;2023-04-01T02:46:37;10.80;99.90
11091;DHT22;5599;52.210;21.046;2023-04-01T02:49:07;10.80;99.90
11091;DHT22;5599;52.210;21.046;2023-04-01T02:51:38;10.70;99.90
11091;DHT22;5599;52.210;21.046;2023-04-01T02:54:07;10.70;99.90
11091;DHT22;5599;52.210;21.046;2023-04-01T02:56:36;10.70;99.90
11091;DHT22;5599;52.210;21.046;2023-04-01T02:59:06;10.60;99.90
11091;DHT22;5599;52.210;21.046;2023-04-01T03:01:35;10.60;99.90
11091;DHT22;5599;52.210;21.046;2023-04-01T03:04:04;10.60;99.90
11091;DHT22;5599;52.210;21.046;2023-04-01T03:06:34;10.60;99.90
11091;DHT22;5599;52.210;21.046;2023-04-01T03:09:04;10.50;99.90
11091;DHT22;5599;52.210;21.046;2023-04-01T03:11:33;10.60;99.90
11091;DHT22;5599;52.210;21.046;2023-04-01T03:14:03;10.50;99.90
11091;DHT22;5599;52.210;21.046;2023-04-01T03:16:32;10.50;99.90
11091;DHT22;5599;52.210;21.046;2023-04-01T03:19:01;10.50;99.90
11091;DHT22;5599;52.210;21.046;2023-04-01T03:21:31;10.50;99.90
11091;DHT22;5599;52.210;21.046;2023-04-01T03:24:01;10.50;99.90
11091;DHT22;5599;52.210;21.046;2023-04-01T03:26:31;10.50;99.90
11091;DHT22;5599;52.210;21.046;2023-04-01T03:29:01;10.50;99.90
11091;DHT22;5599;52.210;21.046;2023-04-01T03:31:30;10.50;99.90
11091;DHT22;5599;52.210;21.046;2023-04-01T03:33:59;10.60;99.90
11091;DHT22;5599;52.210;21.046;2023-04-01T03:36:28;10.50;99.90
11091;DHT22;5599;52.210;21.046;2023-04-01T03:38:58;10.50;99.90
11091;DHT22;5599;52.210;21.046;2023-04-01T03:41:37;10.40;99.90
11091;DHT22;5599;52.210;21.046;2023-04-01T03:44:07;10.40;99.90
11091;DHT22;5599;52.210;21.046;2023-04-01T03:46:36;10.40;99.90
11091;DHT22;5599;52.210;21.046;2023-04-01T03:49:07;10.40;99.90
11091;DHT22;5599;52.210;21.046;2023-04-01T03:51:39;10.40;99.90
11091;DHT22;5599;52.210;21.046;2023-04-01T03:54:10;10.40;99.90
11091;DHT22;5599;52.210;21.046;2023-04-01T03:56:41;10.40;99.90
11091;DHT22;5599;52.210;21.046;2023-04-01T03:59:11;10.40;99.90
11091;DHT22;5599;52.210;21.046;2023-04-01T04:01:41;10.40;99.90
11091;DHT22;5599;52.210;21.046;2023-04-01T04:04:11;10.40;99.90
11091;DHT22;5599;52.210;21.046;2023-04-01T04:06:42;10.30;99.90
11091;DHT22;5599;52.210;21.046;2023-04-01T04:09:12;10.30;99.90
11091;DHT22;5599;52.210;21.046;2023-04-01T04:11:42;10.30;99.90
11091;DHT22;5599;52.210;21.046;2023-04-01T04:14:11;10.30;99.90
11091;DHT22;5599;52.210;21.046;2023-04-01T04:16:41;10.40;99.90
11091;DHT22;5599;52.210;21.046;2023-04-01T04:19:10;10.40;99.90
11091;DHT22;5599;52.210;21.046;2023-04-01T04:21:40;10.40;99.90
11091;DHT22;5599;52.210;21.046;2023-04-01T04:24:10;10.30;99.90
11091;DHT22;5599;52.210;21.046;2023-04-01T04:27:07;10.40;99.90
11091;DHT22;5599;52.210;21.046;2023-04-01T04:29:43;10.30;99.90
11091;DHT22;5599;52.210;21.046;2023-04-01T04:32:12;10.40;99.90
11091;DHT22;5599;52.210;21.046;2023-04-01T04:34:41;10.30;99.90
11091;DHT22;5599;52.210;21.046;2023-04-01T04:37:11;10.40;99.90
11091;DHT22;5599;52.210;21.046;2023-04-01T04:39:40;10.40;99.90
11091;DHT22;5599;52.210;21.046;2023-04-01T04:42:10;10.40;99.90
11091;DHT22;5599;52.210;21.046;2023-04-01T04:44:40;10.40;99.90
11091;DHT22;5599;52.210;21.046;2023-04-01T04:47:09;10.40;99.90
11091;DHT22;5599;52.210;21.046;2023-04-01T04:49:38;10.40;99.90
11091;DHT22;5599;52.210;21.046;2023-04-01T04:52:09;10.40;99.90
11091;DHT22;5599;52.210;21.046;2023-04-01T04:54:38;10.40;99.90
11091;DHT22;5599;52.210;21.046;2023-04-01T04:57:07;10.50;99.90
11091;DHT22;5599;52.210;21.046;2023-04-01T04:59:45;10.50;99.90
11091;DHT22;5599;52.210;21.046;2023-04-01T05:02:26;10.40;99.90
11091;DHT22;5599;52.210;21.046;2023-04-01T05:04:55;10.50;99.90
11091;DHT22;5599;52.210;21.046;2023-04-01T05:07:24;10.50;99.90
11091;DHT22;5599;52.210;21.046;2023-04-01T05:09:53;10.50;99.90
11091;DHT22;5599;52.210;21.046;2023-04-01T05:12:23;10.50;99.90
11091;DHT22;5599;52.210;21.046;2023-04-01T05:14:59;10.50;99.90
11091;DHT22;5599;52.210;21.046;2023-04-01T05:17:29;10.50;99.90
11091;DHT22;5599;52.210;21.046;2023-04-01T05:19:58;10.60;99.90
11091;DHT22;5599;52.210;21.046;2023-04-01T05:22:29;10.60;99.90
11091;DHT22;5599;52.210;21.046;2023-04-01T05:24:58;10.60;99.90
11091;DHT22;5599;52.210;21.046;2023-04-01T05:27:28;10.50;99.90
11091;DHT22;5599;52.210;21.046;2023-04-01T05:29:59;10.50;99.90
11091;DHT22;5599;52.210;21.046;2023-04-01T05:32:48;10.60;99.90
11091;DHT22;5599;52.210;21.046;2023-04-01T05:35:18;10.60;99.90
11091;DHT22;5599;52.210;21.046;2023-04-01T05:37:47;10.70;99.90
11091;DHT22;5599;52.210;21.046;2023-04-01T05:40:17;10.70;99.90
11091;DHT22;5599;52.210;21.046;2023-04-01T05:42:46;10.80;99.90
11091;DHT22;5599;52.210;21.046;2023-04-01T05:45:18;10.90;99.90
11091;DHT22;5599;52.210;21.046;2023-04-01T05:48:05;11.00;99.90
11091;DHT22;5599;52.210;21.046;2023-04-01T05:50:40;11.10;99.90
11091;DHT22;5599;52.210;21.046;2023-04-01T05:53:11;11.00;99.90
11091;DHT22;5599;52.210;21.046;2023-04-01T05:55:42;11.10;99.90
11091;DHT22;5599;52.210;21.046;2023-04-01T05:58:13;11.00;99.90
11091;DHT22;5599;52.210;21.046;2023-04-01T06:00:47;11.10;99.90
11091;DHT22;5599;52.210;21.046;2023-04-01T06:03:28;11.20;99.90
11091;DHT22;5599;52.210;21.046;2023-04-01T06:05:58;11.40;99.90
11091;DHT22;5599;52.210;21.046;2023-04-01T06:08:30;11.80;99.90
11091;DHT22;5599;52.210;21.046;2023-04-01T06:11:10;12.30;1.00
11091;DHT22;5599;52.210;21.046;2023-04-01T06:13:56;12.40;1.00
11091;DHT22;5599;52.210;21.046;2023-04-01T06:16:39;12.30;1.00
11091;DHT22;5599;52.210;21.046;2023-04-01T06:19:27;12.20;1.00
11091;DHT22;5599;52.210;21.046;2023-04-01T06:25:27;11.90;1.00
11091;DHT22;5599;52.210;21.046;2023-04-01T06:28:20;11.80;1.00
11091;DHT22;5599;52.210;21.046;2023-04-01T06:30:58;11.80;1.00
11091;DHT22;5599;52.210;21.046;2023-04-01T06:33:50;11.90;1.00
11091;DHT22;5599;52.210;21.046;2023-04-01T06:36:32;12.00;1.00
11091;DHT22;5599;52.210;21.046;2023-04-01T06:39:20;12.10;1.00
11091;DHT22;5599;52.210;21.046;2023-04-01T06:42:13;12.10;1.00
11091;DHT22;5599;52.210;21.046;2023-04-01T06:44:57;12.00;1.00
11091;DHT22;5599;52.210;21.046;2023-04-01T06:48:02;12.00;1.00
11091;DHT22;5599;52.210;21.046;2023-04-01T06:50:58;11.90;1.00
11091;DHT22;5599;52.210;21.046;2023-04-01T06:53:55;11.90;1.00
11091;DHT22;5599;52.210;21.046;2023-04-01T06:56:46;11.80;1.00
11091;DHT22;5599;52.210;21.046;2023-04-01T06:59:25;11.80;1.00
11091;DHT22;5599;52.210;21.046;2023-04-01T07:01:59;11.80;1.00
11091;DHT22;5599;52.210;21.046;2023-04-01T07:04:33;11.80;1.00
11091;DHT22;5599;52.210;21.046;2023-04-01T07:07:08;11.90;1.00
11091;DHT22;5599;52.210;21.046;2023-04-01T07:09:52;11.90;1.00
11091;DHT22;5599;52.210;21.046;2023-04-01T07:12:39;12.00;1.00
11091;DHT22;5599;52.210;21.046;2023-04-01T07:15:56;12.10;1.00
11091;DHT22;5599;52.210;21.046;2023-04-01T07:18:34;12.30;1.00
11091;DHT22;5599;52.210;21.046;2023-04-01T07:21:10;12.40;1.00
11091;DHT22;5599;52.210;21.046;2023-04-01T07:23:46;12.40;1.00
11091;DHT22;5599;52.210;21.046;2023-04-01T07:26:32;12.50;1.00
11091;DHT22;5599;52.210;21.046;2023-04-01T07:29:02;12.30;1.00
11091;DHT22;5599;52.210;21.046;2023-04-01T07:35:11;12.10;1.00
11091;DHT22;5599;52.210;21.046;2023-04-01T07:37:53;12.00;1.00
11091;DHT22;5599;52.210;21.046;2023-04-01T07:40:32;12.00;1.00
11091;DHT22;5599;52.210;21.046;2023-04-01T07:43:32;12.00;1.00
11091;DHT22;5599;52.210;21.046;2023-04-01T07:46:38;12.00;1.00
11091;DHT22;5599;52.210;21.046;2023-04-01T07:49:15;12.10;1.00
11091;DHT22;5599;52.210;21.046;2023-04-01T07:51:50;12.10;1.00
11091;DHT22;5599;52.210;21.046;2023-04-01T07:54:26;12.30;1.00
11091;DHT22;5599;52.210;21.046;2023-04-01T07:57:02;12.30;1.00
11091;DHT22;5599;52.210;21.046;2023-04-01T07:59:58;12.50;1.00
11091;DHT22;5599;52.210;21.046;2023-04-01T08:03:19;12.70;1.00
11091;DHT22;5599;52.210;21.046;2023-04-01T08:05:55;12.80;1.00
11091;DHT22;5599;52.210;21.046;2023-04-01T08:08:36;12.90;99.90
11091;DHT22;5599;52.210;21.046;2023-04-01T08:11:55;13.00;99.90
11091;DHT22;5599;52.210;21.046;2023-04-01T08:14:53;13.20;99.90
11091;DHT22;5599;52.210;21.046;2023-04-01T08:17:54;13.40;40.40
11091;DHT22;5599;52.210;21.046;2023-04-01T08:20:32;13.50;28.30
11091;DHT22;5599;52.210;21.046;2023-04-01T08:23:10;13.60;1.00
11091;DHT22;5599;52.210;21.046;2023-04-01T08:25:46;13.60;99.90
11091;DHT22;5599;52.210;21.046;2023-04-01T08:28:23;13.60;99.90
11091;DHT22;5599;52.210;21.046;2023-04-01T08:30:58;13.60;99.90
11091;DHT22;5599;52.210;21.046;2023-04-01T08:33:31;13.70;1.00
11091;DHT22;5599;52.210;21.046;2023-04-01T08:36:14;13.50;99.90
11091;DHT22;5599;52.210;21.046;2023-04-01T08:38:51;13.50;1.00
11091;DHT22;5599;52.210;21.046;2023-04-01T08:41:54;13.50;1.00
11091;DHT22;5599;52.210;21.046;2023-04-01T08:47:42;13.30;1.00
11091;DHT22;5599;52.210;21.046;2023-04-01T08:50:26;13.20;99.90
11091;DHT22;5599;52.210;21.046;2023-04-01T08:53:17;13.20;99.90
11091;DHT22;5599;52.210;21.046;2023-04-01T08:56:04;13.20;14.80
11091;DHT22;5599;52.210;21.046;2023-04-01T08:58:59;13.10;1.00
11091;DHT22;5599;52.210;21.046;2023-04-01T09:01:51;12.90;22.70
11091;DHT22;5599;52.210;21.046;2023-04-01T09:05:01;12.90;99.90
11091;DHT22;5599;52.210;21.046;2023-04-01T09:07:41;12.80;1.00
11091;DHT22;5599;52.210;21.046;2023-04-01T09:16:46;13.30;1.00
11091;DHT22;5599;52.210;21.046;2023-04-01T09:19:25;13.60;99.90
11091;DHT22;5599;52.210;21.046;2023-04-01T09:22:33;13.60;99.90
11091;DHT22;5599;52.210;21.046;2023-04-01T09:25:30;13.50;1.00
11091;DHT22;5599;52.210;21.046;2023-04-01T09:28:11;13.30;99.90
11091;DHT22;5599;52.210;21.046;2023-04-01T09:31:09;13.30;99.90
11091;DHT22;5599;52.210;21.046;2023-04-01T09:34:25;13.30;99.90
11091;DHT22;5599;52.210;21.046;2023-04-01T09:37:17;13.20;1.00
11091;DHT22;5599;52.210;21.046;2023-04-01T09:40:28;13.20;99.90
11091;DHT22;5599;52.210;21.046;2023-04-01T09:43:27;13.30;99.90
11091;DHT22;5599;52.210;21.046;2023-04-01T09:46:11;13.30;1.00
11091;DHT22;5599;52.210;21.046;2023-04-01T09:49:00;13.30;1.00
11091;DHT22;5599;52.210;21.046;2023-04-01T09:51:39;13.20;99.90
11091;DHT22;5599;52.210;21.046;2023-04-01T09:54:25;13.10;99.90
11091;DHT22;5599;52.210;21.046;2023-04-01T10:01:30;12.90;1.00
11091;DHT22;5599;52.210;21.046;2023-04-01T10:04:24;12.80;99.90
11091;DHT22;5599;52.210;21.046;2023-04-01T10:10:59;12.90;99.90
11091;DHT22;5599;52.210;21.046;2023-04-01T10:17:14;12.80;68.00
11091;DHT22;5599;52.210;21.046;2023-04-01T10:20:16;12.80;1.00
11091;DHT22;5599;52.210;21.046;2023-04-01T10:26:22;12.90;99.90
11091;DHT22;5599;52.210;21.046;2023-04-01T10:35:42;12.80;99.90
11091;DHT22;5599;52.210;21.046;2023-04-01T10:38:51;12.80;99.90
11091;DHT22;5599;52.210;21.046;2023-04-01T10:45:24;13.00;99.90
11091;DHT22;5599;52.210;21.046;2023-04-01T10:48:28;13.30;99.90
11091;DHT22;5599;52.210;21.046;2023-04-01T10:51:18;13.40;56.20
11091;DHT22;5599;52.210;21.046;2023-04-01T11:01:14;13.60;99.90
11091;DHT22;5599;52.210;21.046;2023-04-01T11:14:22;13.70;99.90
11091;DHT22;5599;52.210;21.046;2023-04-01T11:17:15;13.60;1.00
11091;DHT22;5599;52.210;21.046;2023-04-01T11:20:15;13.50;99.90
11091;DHT22;5599;52.210;21.046;2023-04-01T11:26:09;13.60;99.90
11091;DHT22;5599;52.210;21.046;2023-04-01T11:29:19;13.70;99.90
11091;DHT22;5599;52.210;21.046;2023-04-01T11:32:05;13.70;1.00
11091;DHT22;5599;52.210;21.046;2023-04-01T11:34:57;13.80;1.00
11091;DHT22;5599;52.210;21.046;2023-04-01T11:37:38;14.00;1.00
11091;DHT22;5599;52.210;21.046;2023-04-01T11:40:39;14.10;1.00
11091;DHT22;5599;52.210;21.046;2023-04-01T11:43:42;14.30;6.80
11091;DHT22;5599;52.210;21.046;2023-04-01T11:46:29;14.30;99.90
11091;DHT22;5599;52.210;21.046;2023-04-01T11:49:21;14.30;65.90
11091;DHT22;5599;52.210;21.046;2023-04-01T11:52:26;14.30;99.90
11091;DHT22;5599;52.210;21.046;2023-04-01T11:55:28;14.50;1.00
11091;DHT22;5599;52.210;21.046;2023-04-01T11:58:24;14.60;99.90
11091;DHT22;5599;52.210;21.046;2023-04-01T12:01:15;14.60;99.90
11091;DHT22;5599;52.210;21.046;2023-04-01T12:04:11;14.70;99.90
11091;DHT22;5599;52.210;21.046;2023-04-01T12:06:53;14.70;1.00
11091;DHT22;5599;52.210;21.046;2023-04-01T12:09:34;14.60;99.90
11091;DHT22;5599;52.210;21.046;2023-04-01T12:12:16;14.50;81.30
11091;DHT22;5599;52.210;21.046;2023-04-01T12:14:57;14.40;99.90
11091;DHT22;5599;52.210;21.046;2023-04-01T12:17:36;14.40;1.00
11091;DHT22;5599;52.210;21.046;2023-04-01T12:20:30;14.50;1.00
11091;DHT22;5599;52.210;21.046;2023-04-01T12:23:15;14.60;99.90
11091;DHT22;5599;52.210;21.046;2023-04-01T12:26:03;14.80;1.00
11091;DHT22;5599;52.210;21.046;2023-04-01T12:28:41;14.90;99.90
11091;DHT22;5599;52.210;21.046;2023-04-01T12:31:23;15.00;99.90
11091;DHT22;5599;52.210;21.046;2023-04-01T12:34:15;15.10;1.00
11091;DHT22;5599;52.210;21.046;2023-04-01T12:36:56;15.10;99.90
11091;DHT22;5599;52.210;21.046;2023-04-01T12:39:42;15.20;99.90
11091;DHT22;5599;52.210;21.046;2023-04-01T12:42:23;15.20;1.00
11091;DHT22;5599;52.210;21.046;2023-04-01T12:45:05;15.30;1.00
11091;DHT22;5599;52.210;21.046;2023-04-01T12:47:59;15.20;1.00
11091;DHT22;5599;52.210;21.046;2023-04-01T12:50:53;15.40;1.00
11091;DHT22;5599;52.210;21.046;2023-04-01T12:53:40;15.60;99.90
11091;DHT22;5599;52.210;21.046;2023-04-01T12:56:20;15.90;99.90
11091;DHT22;5599;52.210;21.046;2023-04-01T12:59:21;15.90;99.90
11091;DHT22;5599;52.210;21.046;2023-04-01T13:02:02;16.10;47.60
11091;DHT22;5599;52.210;21.046;2023-04-01T13:07:54;16.00;1.00
11091;DHT22;5599;52.210;21.046;2023-04-01T13:10:36;15.90;57.20
11091;DHT22;5599;52.210;21.046;2023-04-01T13:13:29;15.80;99.90
11091;DHT22;5599;52.210;21.046;2023-04-01T13:16:10;15.80;99.90
11091;DHT22;5599;52.210;21.046;2023-04-01T13:18:54;15.60;99.90
11091;DHT22;5599;52.210;21.046;2023-04-01T13:21:34;15.50;99.90
11091;DHT22;5599;52.210;21.046;2023-04-01T13:24:13;15.50;1.00
11091;DHT22;5599;52.210;21.046;2023-04-01T13:26:53;15.50;1.00
11091;DHT22;5599;52.210;21.046;2023-04-01T13:29:31;15.40;64.80
11091;DHT22;5599;52.210;21.046;2023-04-01T13:32:12;15.40;6.50
11091;DHT22;5599;52.210;21.046;2023-04-01T13:34:56;15.40;99.90
11091;DHT22;5599;52.210;21.046;2023-04-01T13:37:41;15.40;99.90
11091;DHT22;5599;52.210;21.046;2023-04-01T13:40:34;15.20;1.00
11091;DHT22;5599;52.210;21.046;2023-04-01T13:43:20;15.00;1.00
11091;DHT22;5599;52.210;21.046;2023-04-01T13:46:16;14.70;99.90
11091;DHT22;5599;52.210;21.046;2023-04-01T13:52:24;14.30;1.00
11091;DHT22;5599;52.210;21.046;2023-04-01T13:58:20;14.00;77.80
11091;DHT22;5599;52.210;21.046;2023-04-01T14:01:00;13.80;99.90
11091;DHT22;5599;52.210;21.046;2023-04-01T14:03:48;13.60;1.00
11091;DHT22;5599;52.210;21.046;2023-04-01T14:06:34;13.40;99.90
11091;DHT22;5599;52.210;21.046;2023-04-01T14:09:30;13.30;99.90
11091;DHT22;5599;52.210;21.046;2023-04-01T14:12:08;13.40;99.90
11091;DHT22;5599;52.210;21.046;2023-04-01T14:14:59;13.30;99.90
11091;DHT22;5599;52.210;21.046;2023-04-01T14:17:46;13.30;1.00
11091;DHT22;5599;52.210;21.046;2023-04-01T14:20:36;13.20;99.90
11091;DHT22;5599;52.210;21.046;2023-04-01T14:23:30;13.10;1.00
11091;DHT22;5599;52.210;21.046;2023-04-01T14:26:14;13.10;1.00
11091;DHT22;5599;52.210;21.046;2023-04-01T14:28:52;13.10;1.00
11091;DHT22;5599;52.210;21.046;2023-04-01T14:31:34;12.90;1.00
11091;DHT22;5599;52.210;21.046;2023-04-01T14:34:25;12.70;1.00
11091;DHT22;5599;52.210;21.046;2023-04-01T14:37:20;12.60;1.00
11091;DHT22;5599;52.210;21.046;2023-04-01T14:40:26;12.50;1.00
11091;DHT22;5599;52.210;21.046;2023-04-01T14:43:10;12.40;1.00
11091;DHT22;5599;52.210;21.046;2023-04-01T14:45:59;12.30;1.00
11091;DHT22;5599;52.210;21.046;2023-04-01T14:48:37;12.20;1.00
11091;DHT22;5599;52.210;21.046;2023-04-01T14:51:16;12.10;1.00
11091;DHT22;5599;52.210;21.046;2023-04-01T14:53:58;11.90;1.00
11091;DHT22;5599;52.210;21.046;2023-04-01T14:56:40;11.70;1.00
11091;DHT22;5599;52.210;21.046;2023-04-01T14:59:25;11.70;1.00
11091;DHT22;5599;52.210;21.046;2023-04-01T15:02:01;11.60;1.00
11091;DHT22;5599;52.210;21.046;2023-04-01T15:04:52;11.50;1.00
11091;DHT22;5599;52.210;21.046;2023-04-01T15:07:51;11.30;1.00
11091;DHT22;5599;52.210;21.046;2023-04-01T15:10:43;11.20;95.20
11091;DHT22;5599;52.210;21.046;2023-04-01T15:13:15;11.20;76.30
11091;DHT22;5599;52.210;21.046;2023-04-01T15:15:59;11.20;13.60
11091;DHT22;5599;52.210;21.046;2023-04-01T15:18:40;11.10;14.30
11091;DHT22;5599;52.210;21.046;2023-04-01T15:21:36;11.00;68.90
11091;DHT22;5599;52.210;21.046;2023-04-01T15:24:11;10.90;84.20
11091;DHT22;5599;52.210;21.046;2023-04-01T15:27:07;10.90;99.90
11091;DHT22;5599;52.210;21.046;2023-04-01T15:29:58;10.80;93.30
11091;DHT22;5599;52.210;21.046;2023-04-01T15:32:39;10.80;69.00
11091;DHT22;5599;52.210;21.046;2023-04-01T15:35:21;10.70;99.90
11091;DHT22;5599;52.210;21.046;2023-04-01T15:37:58;10.70;99.90
11091;DHT22;5599;52.210;21.046;2023-04-01T15:40:32;10.70;99.90
11091;DHT22;5599;52.210;21.046;2023-04-01T15:43:19;10.60;99.90
11091;DHT22;5599;52.210;21.046;2023-04-01T15:45:58;10.70;99.90
11091;DHT22;5599;52.210;21.046;2023-04-01T15:48:41;10.60;99.90
11091;DHT22;5599;52.210;21.046;2023-04-01T15:51:28;10.60;99.90
11091;DHT22;5599;52.210;21.046;2023-04-01T15:54:19;10.60;99.90
11091;DHT22;5599;52.210;21.046;2023-04-01T16:00:02;10.60;99.90
11091;DHT22;5599;52.210;21.046;2023-04-01T16:02:47;10.50;99.90
11091;DHT22;5599;52.210;21.046;2023-04-01T16:05:27;10.50;99.90
11091;DHT22;5599;52.210;21.046;2023-04-01T16:11:18;10.50;99.90
11091;DHT22;5599;52.210;21.046;2023-04-01T16:13:59;10.50;99.90
11091;DHT22;5599;52.210;21.046;2023-04-01T16:16:49;10.50;99.90
11091;DHT22;5599;52.210;21.046;2023-04-01T16:19:37;10.40;99.90
11091;DHT22;5599;52.210;21.046;2023-04-01T16:22:14;10.50;99.90
11091;DHT22;5599;52.210;21.046;2023-04-01T16:24:50;10.40;99.90
11091;DHT22;5599;52.210;21.046;2023-04-01T16:27:29;10.40;99.90
11091;DHT22;5599;52.210;21.046;2023-04-01T16:30:23;10.40;99.90
11091;DHT22;5599;52.210;21.046;2023-04-01T16:33:01;10.40;99.90
11091;DHT22;5599;52.210;21.046;2023-04-01T16:35:41;10.40;99.90
11091;DHT22;5599;52.210;21.046;2023-04-01T16:38:18;10.30;99.90
11091;DHT22;5599;52.210;21.046;2023-04-01T16:41:03;10.30;99.90
11091;DHT22;5599;52.210;21.046;2023-04-01T16:43:40;10.20;99.90
11091;DHT22;5599;52.210;21.046;2023-04-01T16:46:32;10.30;99.90
11091;DHT22;5599;52.210;21.046;2023-04-01T16:49:24;10.20;99.90
11091;DHT22;5599;52.210;21.046;2023-04-01T16:52:03;10.10;99.90
11091;DHT22;5599;52.210;21.046;2023-04-01T16:54:40;9.90;99.90
11091;DHT22;5599;52.210;21.046;2023-04-01T16:57:19;9.80;99.90
11091;DHT22;5599;52.210;21.046;2023-04-01T16:59:59;9.80;99.90
11091;DHT22;5599;52.210;21.046;2023-04-01T17:02:36;9.80;99.90
11091;DHT22;5599;52.210;21.046;2023-04-01T17:05:09;9.70;99.90
11091;DHT22;5599;52.210;21.046;2023-04-01T17:07:48;9.70;99.90
11091;DHT22;5599;52.210;21.046;2023-04-01T17:10:40;9.70;99.90
11091;DHT22;5599;52.210;21.046;2023-04-01T17:13:29;9.70;99.90
11091;DHT22;5599;52.210;21.046;2023-04-01T17:16:21;9.70;99.90
11091;DHT22;5599;52.210;21.046;2023-04-01T17:19:04;9.80;99.90
11091;DHT22;5599;52.210;21.046;2023-04-01T17:21:48;9.80;99.90
11091;DHT22;5599;52.210;21.046;2023-04-01T17:24:42;9.70;99.90
11091;DHT22;5599;52.210;21.046;2023-04-01T17:27:29;9.70;99.90
11091;DHT22;5599;52.210;21.046;2023-04-01T17:30:17;9.70;99.90
11091;DHT22;5599;52.210;21.046;2023-04-01T17:33:07;9.70;99.90
11091;DHT22;5599;52.210;21.046;2023-04-01T17:35:47;9.80;99.90
11091;DHT22;5599;52.210;21.046;2023-04-01T17:41:28;9.60;99.90
11091;DHT22;5599;52.210;21.046;2023-04-01T17:44:13;9.60;99.90
11091;DHT22;5599;52.210;21.046;2023-04-01T17:47:10;9.70;99.90
11091;DHT22;5599;52.210;21.046;2023-04-01T17:49:49;9.60;99.90
11091;DHT22;5599;52.210;21.046;2023-04-01T17:52:29;9.70;99.90
11091;DHT22;5599;52.210;21.046;2023-04-01T17:55:26;9.70;99.90
11091;DHT22;5599;52.210;21.046;2023-04-01T17:58:06;9.70;99.90
11091;DHT22;5599;52.210;21.046;2023-04-01T18:00:56;9.70;99.90
11091;DHT22;5599;52.210;21.046;2023-04-01T18:06:46;9.80;99.90
11091;DHT22;5599;52.210;21.046;2023-04-01T18:09:25;9.80;99.90
11091;DHT22;5599;52.210;21.046;2023-04-01T18:12:05;9.80;99.90
11091;DHT22;5599;52.210;21.046;2023-04-01T18:15:10;9.70;99.90
11091;DHT22;5599;52.210;21.046;2023-04-01T18:17:52;9.70;99.90
11091;DHT22;5599;52.210;21.046;2023-04-01T18:20:43;9.70;99.90
11091;DHT22;5599;52.210;21.046;2023-04-01T18:23:28;9.70;99.90
11091;DHT22;5599;52.210;21.046;2023-04-01T18:26:05;9.70;99.90
11091;DHT22;5599;52.210;21.046;2023-04-01T18:28:39;9.70;99.90
11091;DHT22;5599;52.210;21.046;2023-04-01T18:31:16;9.70;99.90
11091;DHT22;5599;52.210;21.046;2023-04-01T18:33:56;9.70;99.90